Arhangel'Sk, Russia
Current Conditions -  °F | °C
As of 9:00 PM on Saturday 25 Oct 2014 (Local Time) from ULAA Reporting Station
Moderate Snow Moderate Snow  
Wind Chill: 15°   Ceiling: 500
Heat Index: 23°   Visibility: 1.1mi
Dew Point: 21°   Wind: 7mph
Humidity: 93%   Direction: 170°S
Pressure: 30.33"   Gusts: 13mph
Location:  64.5°N, 40.73°E
Report Text: ULAA 251800Z 17003G06MPS 130V210 1800 R26/P2000U SN OVC005M05/M06 Q1027 BECMG 2000 SN OVC005 RMK QBB160 QFE768/1025 SC050
Loading
Personal Weather Stations






























Interactive Weather Map
Tropical Storm Tracking
New forecast layout! Learn more

10-Day Weather Forecast

Advertisements
Track Severe Weather on mobile